createdAt,value
2019-05-30T00:00:26.167Z,47.12
2019-05-30T00:05:30.355Z,47.69
2019-05-30T00:10:34.541Z,48.09
2019-05-30T00:15:38.766Z,48.61
2019-05-30T00:20:43.003Z,48.39
2019-05-30T00:25:47.189Z,48.84
2019-05-30T00:30:51.722Z,49.12
2019-05-30T00:35:55.921Z,49.77
2019-05-30T00:41:00.122Z,49.80
2019-05-30T00:46:04.314Z,50.18
2019-05-30T00:51:08.565Z,50.67
2019-05-30T00:56:12.785Z,50.78
2019-05-30T01:01:16.989Z,51.03
2019-05-30T01:06:21.194Z,51.03
2019-05-30T01:11:25.355Z,50.96
2019-05-30T01:16:29.557Z,51.43
2019-05-30T01:21:33.770Z,51.27
2019-05-30T01:26:37.953Z,51.21
2019-05-30T01:31:42.183Z,51.54
2019-05-30T01:36:46.376Z,51.96
2019-05-30T01:41:50.606Z,52.02
2019-05-30T01:46:54.791Z,52.02
2019-05-30T01:52:00.280Z,52.52
2019-05-30T01:57:04.945Z,52.50
2019-05-30T02:02:09.658Z,52.96
2019-05-30T02:07:13.852Z,53.06
2019-05-30T02:12:18.025Z,53.15
2019-05-30T02:17:22.216Z,53.43
2019-05-30T02:22:26.486Z,53.56
2019-05-30T02:27:30.672Z,53.67
2019-05-30T02:32:34.871Z,54.02
2019-05-30T02:37:39.051Z,54.24
2019-05-30T02:42:43.242Z,54.39
2019-05-30T02:47:47.445Z,54.61
2019-05-30T02:52:51.629Z,54.37
2019-05-30T02:57:55.831Z,54.52
2019-05-30T03:03:01.766Z,54.44
2019-05-30T03:08:09.031Z,54.45
2019-05-30T03:13:13.007Z,54.56
2019-05-30T03:18:17.456Z,54.64
2019-05-30T03:23:21.686Z,54.80
2019-05-30T03:28:25.878Z,55.05
2019-05-30T03:33:39.423Z,54.54
2019-05-30T03:38:35.988Z,54.71
2019-05-30T03:43:40.189Z,54.67
2019-05-30T03:48:47.827Z,54.69
2019-05-30T03:53:52.779Z,54.87
2019-05-30T03:59:20.736Z,54.86
2019-05-30T04:04:29.395Z,54.76
2019-05-30T04:09:36.314Z,54.67
2019-05-30T04:14:43.707Z,54.58
2019-05-30T04:19:47.889Z,54.52
2019-05-30T04:24:52.129Z,54.60
2019-05-30T04:29:56.338Z,54.48
2019-05-30T04:35:00.518Z,54.53
2019-05-30T04:40:05.307Z,54.04
2019-05-30T04:45:11.695Z,54.11
2019-05-30T04:50:16.485Z,54.54
2019-05-30T04:55:23.014Z,53.99
2019-05-30T05:00:26.944Z,53.80
2019-05-30T05:05:31.144Z,53.63
2019-05-30T05:10:35.317Z,52.85
2019-05-30T05:15:39.504Z,53.20
2019-05-30T05:20:43.727Z,52.53
2019-05-30T05:26:00.298Z,52.00
2019-05-30T05:30:53.868Z,51.88
2019-05-30T05:35:58.081Z,51.46
2019-05-30T05:41:02.286Z,51.14
2019-05-30T05:46:06.521Z,50.97
2019-05-30T05:51:10.730Z,50.17
2019-05-30T05:56:14.921Z,50.09
2019-05-30T06:01:19.444Z,50.00
2019-05-30T06:06:23.783Z,49.45
2019-05-30T06:11:28.906Z,48.60
2019-05-30T06:16:33.273Z,48.18
2019-05-30T06:21:52.779Z,47.85
2019-05-30T06:26:43.376Z,47.46
2019-05-30T06:31:47.607Z,47.33
2019-05-30T06:36:51.808Z,47.22
2019-05-30T06:41:55.994Z,46.87
2019-05-30T06:47:00.195Z,46.58
2019-05-30T06:52:04.404Z,45.67
2019-05-30T06:57:08.654Z,45.68
2019-05-30T07:02:12.859Z,44.18
2019-05-30T07:07:17.466Z,43.83
2019-05-30T07:12:22.803Z,43.29
2019-05-30T07:17:27.447Z,43.42
2019-05-30T07:22:31.893Z,42.44
2019-05-30T07:27:36.312Z,41.83
2019-05-30T07:32:40.545Z,41.69
2019-05-30T07:37:46.642Z,38.91
2019-05-30T07:42:50.667Z,38.38
2019-05-30T07:47:54.864Z,37.85
2019-05-30T07:52:59.049Z,37.58
2019-05-30T07:58:03.262Z,37.18
2019-05-30T08:03:07.474Z,36.48
2019-05-30T08:08:11.677Z,36.49
2019-05-30T08:13:15.949Z,35.86
2019-05-30T08:18:20.146Z,35.65
2019-05-30T08:23:24.380Z,35.70
2019-05-30T08:28:28.830Z,38.11
2019-05-30T08:33:33.618Z,33.03
2019-05-30T08:38:37.911Z,33.37
2019-05-30T08:43:42.159Z,34.96
2019-05-30T08:48:46.367Z,35.31
2019-05-30T08:53:50.583Z,33.83
2019-05-30T08:58:54.844Z,36.31
2019-05-30T09:03:59.080Z,35.16
2019-05-30T09:09:03.619Z,33.11
2019-05-30T09:14:07.836Z,32.81
2019-05-30T09:19:12.093Z,33.31
2019-05-30T09:24:16.296Z,33.16
2019-05-30T09:29:20.506Z,32.74
2019-05-30T09:34:24.726Z,34.89
2019-05-30T09:39:29.835Z,33.41
2019-05-30T09:44:34.123Z,33.09
2019-05-30T09:49:38.333Z,33.25
2019-05-30T09:54:43.072Z,33.20
2019-05-30T09:59:48.671Z,32.57
2019-05-30T10:04:54.381Z,32.71
2019-05-30T10:09:58.609Z,31.12
2019-05-30T10:15:03.058Z,29.83
2019-05-30T10:20:08.098Z,30.97
2019-05-30T10:25:12.738Z,31.46
2019-05-30T10:30:17.528Z,30.73
2019-05-30T10:35:22.043Z,30.66
2019-05-30T10:40:26.452Z,30.66
2019-05-30T10:45:30.809Z,30.49
2019-05-30T10:50:35.013Z,29.79
2019-05-30T10:55:39.329Z,29.53
2019-05-30T11:00:48.970Z,29.35
2019-05-30T11:06:15.805Z,28.48
2019-05-30T11:11:20.033Z,28.54
2019-05-30T11:16:24.255Z,28.01
2019-05-30T11:21:28.459Z,27.56
2019-05-30T11:26:32.715Z,26.61
2019-05-30T11:31:36.939Z,27.13
2019-05-30T11:36:41.154Z,26.59
2019-05-30T11:41:45.342Z,25.52
2019-05-30T11:46:49.579Z,24.73
2019-05-30T11:51:53.859Z,24.35
2019-05-30T11:56:58.182Z,25.15
2019-05-30T12:02:02.431Z,24.25
2019-05-30T12:07:06.651Z,24.28
2019-05-30T12:12:11.129Z,24.44
2019-05-30T12:17:15.347Z,22.98
2019-05-30T12:22:19.545Z,23.72
2019-05-30T12:27:23.799Z,22.88
2019-05-30T12:32:28.130Z,23.19
2019-05-30T12:37:32.334Z,24.11
2019-05-30T12:42:36.534Z,24.36
2019-05-30T12:47:40.730Z,23.96
2019-05-30T12:52:44.928Z,24.50
2019-05-30T12:57:49.250Z,23.28
2019-05-30T13:02:54.622Z,23.79
2019-05-30T13:08:16.499Z,22.72
2019-05-30T13:13:06.177Z,24.30
2019-05-30T13:18:10.470Z,23.55
2019-05-30T13:23:14.644Z,24.28
2019-05-30T13:28:18.856Z,23.10
2019-05-30T13:33:23.103Z,23.10
2019-05-30T13:38:27.311Z,22.97
2019-05-30T13:43:31.513Z,21.74
2019-05-30T13:48:35.755Z,21.66
2019-05-30T13:53:39.958Z,22.41
2019-05-30T13:58:44.176Z,23.46
2019-05-30T14:03:48.471Z,24.57
2019-05-30T14:08:52.642Z,24.50
2019-05-30T14:13:56.829Z,23.59
2019-05-30T14:19:01.113Z,24.40
2019-05-30T14:24:05.386Z,21.98
2019-05-30T14:29:09.845Z,22.79
2019-05-30T14:34:14.070Z,24.28
2019-05-30T14:39:18.988Z,25.31
2019-05-30T14:44:23.743Z,24.75
2019-05-30T14:49:27.997Z,23.78
2019-05-30T14:54:32.204Z,25.94
2019-05-30T14:59:36.404Z,23.58
2019-05-30T15:04:40.613Z,23.43
2019-05-30T15:09:44.841Z,25.24
2019-05-30T15:14:49.046Z,25.06
2019-05-30T15:19:53.300Z,26.15
2019-05-30T15:24:57.487Z,25.81
2019-05-30T15:30:01.721Z,26.66
2019-05-30T15:35:08.648Z,27.47
2019-05-30T15:40:15.171Z,26.83
2019-05-30T15:45:19.631Z,26.52
2019-05-30T15:50:23.816Z,27.05
2019-05-30T15:55:28.103Z,27.64
2019-05-30T16:00:32.311Z,28.46
2019-05-30T16:05:36.528Z,28.38
2019-05-30T16:10:40.735Z,28.79
2019-05-30T16:15:45.082Z,29.10
2019-05-30T16:20:49.309Z,29.55
2019-05-30T16:25:53.753Z,29.56
2019-05-30T16:30:58.148Z,30.58
2019-05-30T16:36:02.549Z,30.74
2019-05-30T16:41:06.765Z,31.56
2019-05-30T16:46:10.992Z,31.49
2019-05-30T16:51:15.185Z,31.74
2019-05-30T16:56:19.467Z,32.02
2019-05-30T17:01:24.200Z,31.85
2019-05-30T17:06:28.562Z,33.08
2019-05-30T17:11:32.859Z,32.63
2019-05-30T17:16:37.129Z,32.29
2019-05-30T17:21:41.420Z,32.28
2019-05-30T17:26:45.720Z,32.24
2019-05-30T17:31:49.951Z,37.15
2019-05-30T17:36:54.135Z,39.46
2019-05-30T17:41:58.419Z,42.61
2019-05-30T17:47:02.644Z,43.33
2019-05-30T17:52:06.850Z,42.77
2019-05-30T17:57:11.074Z,44.11
2019-05-30T18:02:15.330Z,44.59
2019-05-30T18:07:20.737Z,44.39
2019-05-30T18:12:25.224Z,43.72
2019-05-30T18:17:29.428Z,43.95
2019-05-30T18:22:34.476Z,44.89
2019-05-30T18:27:38.748Z,44.89
2019-05-30T18:32:42.961Z,44.54
2019-05-30T18:37:47.191Z,45.20
2019-05-30T18:42:51.410Z,45.77
2019-05-30T18:47:55.646Z,47.21
2019-05-30T18:52:59.865Z,47.24
2019-05-30T18:58:07.299Z,47.26
2019-05-30T19:03:10.343Z,47.65
2019-05-30T19:08:14.563Z,47.65
2019-05-30T19:13:18.788Z,47.35
2019-05-30T19:18:23.000Z,47.80
2019-05-30T19:23:27.987Z,48.11
2019-05-30T19:28:32.594Z,48.06
2019-05-30T19:33:37.123Z,48.06
2019-05-30T19:38:41.470Z,48.04
2019-05-30T19:43:45.696Z,47.82
2019-05-30T19:48:49.895Z,48.20
2019-05-30T19:53:54.092Z,48.46
2019-05-30T19:58:58.316Z,48.68
2019-05-30T20:04:02.524Z,48.94
2019-05-30T20:09:09.067Z,49.23
2019-05-30T20:14:13.260Z,49.42
2019-05-30T20:19:17.506Z,49.42
2019-05-30T20:24:21.762Z,49.93
2019-05-30T20:29:25.977Z,50.72
2019-05-30T20:34:30.223Z,51.42
2019-05-30T20:39:34.746Z,51.20
2019-05-30T20:44:38.995Z,51.27
2019-05-30T20:49:43.451Z,51.57
2019-05-30T20:54:47.785Z,51.77
2019-05-30T20:59:52.977Z,52.04
2019-05-30T21:04:58.121Z,52.23
2019-05-30T21:10:03.533Z,52.33
2019-05-30T21:15:08.310Z,52.41
2019-05-30T21:20:12.557Z,52.84
2019-05-30T21:25:16.789Z,53.01
2019-05-30T21:30:21.099Z,52.93
2019-05-30T21:35:25.484Z,53.17
2019-05-30T21:40:29.658Z,53.09
2019-05-30T21:45:33.865Z,53.31
2019-05-30T21:50:39.297Z,53.51
2019-05-30T21:55:44.040Z,53.60
2019-05-30T22:01:35.702Z,53.67
2019-05-30T22:06:41.205Z,53.88
2019-05-30T22:11:45.672Z,53.75
2019-05-30T22:16:50.321Z,53.92
2019-05-30T22:21:54.667Z,54.07
2019-05-30T22:26:58.882Z,54.15
2019-05-30T22:32:03.140Z,54.15
2019-05-30T22:37:07.329Z,54.29
2019-05-30T22:42:11.555Z,54.41
2019-05-30T22:47:15.764Z,54.22
2019-05-30T22:52:19.974Z,54.98
2019-05-30T22:57:24.177Z,54.75
2019-05-30T23:02:28.406Z,54.65
2019-05-30T23:07:32.591Z,55.14
2019-05-30T23:12:36.791Z,55.24
2019-05-30T23:17:41.012Z,55.43
2019-05-30T23:22:45.304Z,55.64
2019-05-30T23:27:49.596Z,55.66
2019-05-30T23:32:54.201Z,56.12
2019-05-30T23:37:58.864Z,56.42
2019-05-30T23:43:03.082Z,56.74
2019-05-30T23:48:07.281Z,56.94
2019-05-30T23:53:11.470Z,57.56
2019-05-30T23:58:15.683Z,57.99
